Weather at Al Manhal Palace Heliport

Public forecast

Using degrees Celsius for public forecast. Weather courtesy of forecast.io.

Closest aviation weather report (METAR) to Al Manhal Palace Heliport

Closest report is Al Bateen Executive Airport, 6.1 nm (11.3 km) ESE.

2024/05/25 05:00 (retrieved 11 minutes ago)

OMAD 250500Z 31014KT CAVOK 35/19 Q1002 NOSIG

Closest aviation forecast (TAF) to Al Manhal Palace Heliport

Forecast is more than 6 hours old.

Closest forecast is Hamad International Airport, 157.4 nm (291.5 km) WNW.

2024/05/24 18:00 (retrieved 11 hours ago)

TAF OTHH 241701Z 2418/2524 33012KT CAVOK TEMPO 2422/2503 27007KT TEMPO 2508/2515 03014KT